M/T Filos — 9HQB8 — position and weather

sailwx.info

Track history (hours):
 
Tides and Currents Weather Stations Pressure Air Temp Water Temp Dewpoint Dewpoint Depression Visibility Wind Speed Wind Dir Waves Ship Positions

M/T Filos

Last reported at 2015-Mar-03 06:33 UTC. Time now 2015-Mar-03 07:21 UTC.
Position N 53°58' E 008°33'.

Length 180 m; draft 7.4 m.

Type: Tanker. MMSI: 224561000.

Date/timePositionNaut miles runAvg speedWind from/ knotsBaromVisibWave heightAir tempDewpointWater temp
2015-Mar-03 06:33N 53°58' E 008°33'1212.4
2015-Mar-03 05:33N 53°50' E 008°49'1212.0
2015-Mar-03 04:33N 53°54' E 009°09'0 0.0
2015-Mar-03 03:33N 53°54' E 009°09'1 1.3
2015-Mar-03 02:33N 53°55' E 009°10'0 0.0
2015-Mar-03 01:33N 53°55' E 009°10'0 0.0
2015-Mar-03 00:33N 53°55' E 009°10'0 0.0
2015-Mar-02 23:33N 53°55' E 009°10'0 0.0
2015-Mar-02 22:33N 53°55' E 009°10'0 0.0
2015-Mar-02 21:33N 53°55' E 009°10'0 0.0
2015-Mar-02 20:33N 53°55' E 009°10'0 0.0
2015-Mar-02 19:33N 53°55' E 009°10'0 0.0
2015-Mar-02 18:33N 53°55' E 009°10'0 0.0
2015-Mar-02 17:33N 53°55' E 009°10'0 0.0
2015-Mar-02 16:33N 53°55' E 009°10'0 0.0
2015-Mar-02 15:33N 53°55' E 009°10'0 0.0
2015-Mar-02 14:33N 53°55' E 009°10'0 0.0
2015-Mar-02 13:33N 53°55' E 009°10'0 0.0
2015-Mar-02 12:33N 53°55' E 009°10'0 0.0
2015-Mar-02 11:33N 53°55' E 009°10'0 0.0
2015-Mar-02 10:33N 53°55' E 009°10'0 0.0
2015-Mar-02 09:33N 53°55' E 009°10'0 0.0
2015-Mar-02 08:33N 53°55' E 009°10'0 0.0
2015-Mar-02 07:33N 53°55' E 009°10'0 0.0
2015-Mar-02 06:33N 53°55' E 009°10'0 0.0
2015-Mar-02 05:33N 53°55' E 009°10'0 0.0
2015-Mar-02 04:33N 53°55' E 009°10'0 0.0
2015-Mar-02 03:33N 53°55' E 009°10'0 0.1
2015-Mar-02 02:33N 53°55' E 009°10'0 0.0
2015-Mar-02 01:33N 53°55' E 009°10'0 0.0
2015-Mar-02 00:33N 53°55' E 009°10'0 0.0
2015-Mar-01 23:33N 53°55' E 009°10'0 0.0
2015-Mar-01 22:33N 53°55' E 009°10'0 0.0
2015-Mar-01 21:33N 53°55' E 009°10'0 0.0
2015-Mar-01 20:33N 53°55' E 009°10'0 0.0
2015-Mar-01 19:34N 53°55' E 009°10'1 1.2
2015-Mar-01 18:31N 53°54' E 009°09'3 2.9
2015-Mar-01 17:33N 53°52' E 009°04'1110.7
2015-Mar-01 16:33N 53°51' E 008°47'9 8.6
2015-Mar-01 15:33N 53°57' E 008°37'1211.8
2015-Mar-01 14:33N 53°60' E 008°18'1110.7
2015-Mar-01 13:33N 54°01' E 007°60'1211.6
2015-Mar-01 12:33N 54°07' E 007°42'1211.5
2015-Mar-01 11:33N 54°09' E 007°23'1212.0
2015-Mar-01 10:33N 54°09' E 007°03'1312.1
2015-Mar-01 09:31N 54°09' E 006°41'2412.3
2015-Mar-01 07:33N 54°07' E 006°00'1212.4
2015-Mar-01 06:33N 54°05' E 005°39'1212.4
2015-Mar-01 05:33N 54°04' E 005°18'1212.5
2015-Mar-01 04:33N 54°02' E 004°57'12410.9
2015-Feb-28 17:07N 52°09' E 003°30'711.7
2015-Feb-28 16:32N 52°06' E 003°40'1110.8
2015-Feb-28 15:33N 52°02' E 003°56'1211.9
2015-Feb-28 14:33N 51°56' E 004°13'5 4.2
2015-Feb-28 13:29N 51°53' E 004°18'0 0.0
2015-Feb-28 12:26N 51°53' E 004°18'0 0.0
2015-Feb-28 11:32N 51°53' E 004°18'0 0.0
2015-Feb-28 10:32N 51°53' E 004°18'0 0.0
2015-Feb-28 09:32N 51°53' E 004°18'0 0.0
2015-Feb-28 08:32N 51°53' E 004°18'0 0.0
2015-Feb-28 07:32N 51°53' E 004°18'0 0.0
2015-Feb-28 06:32N 51°53' E 004°18'0 0.0
2015-Feb-28 05:32N 51°53' E 004°18'0 0.0
2015-Feb-28 04:32N 51°53' E 004°18'0 0.0
2015-Feb-28 03:29N 51°53' E 004°18'0 0.0
2015-Feb-28 02:32N 51°53' E 004°18'0 0.0
2015-Feb-28 01:29N 51°53' E 004°18'0 0.0
2015-Feb-28 00:29N 51°53' E 004°18'0 0.0
2015-Feb-27 23:32N 51°53' E 004°18'0 0.0
2015-Feb-27 22:26N 51°53' E 004°18'0 0.0
2015-Feb-27 21:26N 51°53' E 004°18'0 0.0
2015-Feb-27 20:32N 51°53' E 004°18'0 0.0
2015-Feb-27 19:23N 51°53' E 004°18'0 0.0
2015-Feb-27 18:17N 51°53' E 004°18'0 0.0
2015-Feb-27 17:20N 51°53' E 004°18'0 0.0
2015-Feb-27 16:26N 51°53' E 004°18'0 0.4
2015-Feb-27 15:33N 51°53' E 004°18'7 6.7
2015-Feb-27 14:34N 51°57' E 004°10'8 8.1
2015-Feb-27 13:34N 51°60' E 003°58'10 9.8
2015-Feb-27 12:33N 51°58' E 003°42'10 9.4
2015-Feb-27 11:32N 51°53' E 003°28'0 0.0
2015-Feb-27 10:22N 51°53' E 003°28'8 9.1
2015-Feb-27 09:28N 51°54' E 003°15'3411.5
2015-Feb-27 06:33N 51°38' E 002°27'1111.1
2015-Feb-27 05:34N 51°30' E 002°16'1010.4
2015-Feb-27 04:33N 51°20' E 002°09'9 9.5
2015-Feb-27 03:33N 51°12' E 002°00'10 9.7
2015-Feb-27 02:33N 51°07' E 001°47'9 9.1
2015-Feb-27 01:33N 51°01' E 001°37'9 8.5
2015-Feb-27 00:31N 50°55' E 001°27'  
Track history (hours):
 
Tides and Currents Weather Stations Pressure Air Temp Water Temp Dewpoint Dewpoint Depression Visibility Wind Speed Wind Dir Waves Ship Positions

M/T Filos

Last reported at 2015-Mar-03 06:33 UTC. Time now 2015-Mar-03 07:21 UTC.
Position N 53°58' E 008°33'.

Length 180 m; draft 7.4 m.

Type: Tanker. MMSI: 224561000.

Date/timePositionNaut miles runAvg speedWind from/ knotsBaromVisibWave heightAir tempDewpointWater temp
2015-Mar-03 06:33N 53°58' E 008°33'1212.4
2015-Mar-03 05:33N 53°50' E 008°49'1212.0
2015-Mar-03 04:33N 53°54' E 009°09'0 0.0
2015-Mar-03 03:33N 53°54' E 009°09'1 1.3
2015-Mar-03 02:33N 53°55' E 009°10'0 0.0
2015-Mar-03 01:33N 53°55' E 009°10'0 0.0
2015-Mar-03 00:33N 53°55' E 009°10'0 0.0
2015-Mar-02 23:33N 53°55' E 009°10'0 0.0
2015-Mar-02 22:33N 53°55' E 009°10'0 0.0
2015-Mar-02 21:33N 53°55' E 009°10'0 0.0
2015-Mar-02 20:33N 53°55' E 009°10'0 0.0
2015-Mar-02 19:33N 53°55' E 009°10'0 0.0
2015-Mar-02 18:33N 53°55' E 009°10'0 0.0
2015-Mar-02 17:33N 53°55' E 009°10'0 0.0
2015-Mar-02 16:33N 53°55' E 009°10'0 0.0
2015-Mar-02 15:33N 53°55' E 009°10'0 0.0
2015-Mar-02 14:33N 53°55' E 009°10'0 0.0
2015-Mar-02 13:33N 53°55' E 009°10'0 0.0
2015-Mar-02 12:33N 53°55' E 009°10'0 0.0
2015-Mar-02 11:33N 53°55' E 009°10'0 0.0
2015-Mar-02 10:33N 53°55' E 009°10'0 0.0
2015-Mar-02 09:33N 53°55' E 009°10'0 0.0
2015-Mar-02 08:33N 53°55' E 009°10'0 0.0
2015-Mar-02 07:33N 53°55' E 009°10'0 0.0
2015-Mar-02 06:33N 53°55' E 009°10'0 0.0
2015-Mar-02 05:33N 53°55' E 009°10'0 0.0
2015-Mar-02 04:33N 53°55' E 009°10'0 0.0
2015-Mar-02 03:33N 53°55' E 009°10'0 0.1
2015-Mar-02 02:33N 53°55' E 009°10'0 0.0
2015-Mar-02 01:33N 53°55' E 009°10'0 0.0
2015-Mar-02 00:33N 53°55' E 009°10'0 0.0
2015-Mar-01 23:33N 53°55' E 009°10'0 0.0
2015-Mar-01 22:33N 53°55' E 009°10'0 0.0
2015-Mar-01 21:33N 53°55' E 009°10'0 0.0
2015-Mar-01 20:33N 53°55' E 009°10'0 0.0
2015-Mar-01 19:34N 53°55' E 009°10'1 1.2
2015-Mar-01 18:31N 53°54' E 009°09'3 2.9
2015-Mar-01 17:33N 53°52' E 009°04'1110.7
2015-Mar-01 16:33N 53°51' E 008°47'9 8.6
2015-Mar-01 15:33N 53°57' E 008°37'1211.8
2015-Mar-01 14:33N 53°60' E 008°18'1110.7
2015-Mar-01 13:33N 54°01' E 007°60'1211.6
2015-Mar-01 12:33N 54°07' E 007°42'1211.5
2015-Mar-01 11:33N 54°09' E 007°23'1212.0
2015-Mar-01 10:33N 54°09' E 007°03'1312.1
2015-Mar-01 09:31N 54°09' E 006°41'2412.3
2015-Mar-01 07:33N 54°07' E 006°00'1212.4
2015-Mar-01 06:33N 54°05' E 005°39'1212.4
2015-Mar-01 05:33N 54°04' E 005°18'1212.5
2015-Mar-01 04:33N 54°02' E 004°57'12410.9
2015-Feb-28 17:07N 52°09' E 003°30'711.7
2015-Feb-28 16:32N 52°06' E 003°40'1110.8
2015-Feb-28 15:33N 52°02' E 003°56'1211.9
2015-Feb-28 14:33N 51°56' E 004°13'5 4.2
2015-Feb-28 13:29N 51°53' E 004°18'0 0.0
2015-Feb-28 12:26N 51°53' E 004°18'0 0.0
2015-Feb-28 11:32N 51°53' E 004°18'0 0.0
2015-Feb-28 10:32N 51°53' E 004°18'0 0.0
2015-Feb-28 09:32N 51°53' E 004°18'0 0.0
2015-Feb-28 08:32N 51°53' E 004°18'0 0.0
2015-Feb-28 07:32N 51°53' E 004°18'0 0.0
2015-Feb-28 06:32N 51°53' E 004°18'0 0.0
2015-Feb-28 05:32N 51°53' E 004°18'0 0.0
2015-Feb-28 04:32N 51°53' E 004°18'0 0.0
2015-Feb-28 03:29N 51°53' E 004°18'0 0.0
2015-Feb-28 02:32N 51°53' E 004°18'0 0.0
2015-Feb-28 01:29N 51°53' E 004°18'0 0.0
2015-Feb-28 00:29N 51°53' E 004°18'0 0.0
2015-Feb-27 23:32N 51°53' E 004°18'0 0.0
2015-Feb-27 22:26N 51°53' E 004°18'0 0.0
2015-Feb-27 21:26N 51°53' E 004°18'0 0.0
2015-Feb-27 20:32N 51°53' E 004°18'0 0.0
2015-Feb-27 19:23N 51°53' E 004°18'0 0.0
2015-Feb-27 18:17N 51°53' E 004°18'0 0.0
2015-Feb-27 17:20N 51°53' E 004°18'0 0.0
2015-Feb-27 16:26N 51°53' E 004°18'0 0.4
2015-Feb-27 15:33N 51°53' E 004°18'7 6.7
2015-Feb-27 14:34N 51°57' E 004°10'8 8.1
2015-Feb-27 13:34N 51°60' E 003°58'10 9.8
2015-Feb-27 12:33N 51°58' E 003°42'10 9.4
2015-Feb-27 11:32N 51°53' E 003°28'0 0.0
2015-Feb-27 10:22N 51°53' E 003°28'8 9.1
2015-Feb-27 09:28N 51°54' E 003°15'3411.5
2015-Feb-27 06:33N 51°38' E 002°27'1111.1
2015-Feb-27 05:34N 51°30' E 002°16'1010.4
2015-Feb-27 04:33N 51°20' E 002°09'9 9.5
2015-Feb-27 03:33N 51°12' E 002°00'10 9.7
2015-Feb-27 02:33N 51°07' E 001°47'9 9.1
2015-Feb-27 01:33N 51°01' E 001°37'9 8.5
2015-Feb-27 00:31N 50°55' E 001°27'  

Dump ship's entire track history